createdAt,value
2017-11-09T00:02:03.286Z,7.90
2017-11-09T00:04:37.436Z,7.80
2017-11-09T00:07:05.009Z,7.70
2017-11-09T00:09:32.607Z,7.70
2017-11-09T00:12:00.176Z,7.60
2017-11-09T00:14:27.770Z,7.40
2017-11-09T00:16:55.345Z,7.20
2017-11-09T00:19:22.929Z,7.10
2017-11-09T00:21:50.505Z,7.20
2017-11-09T00:24:18.100Z,7.20
2017-11-09T00:26:45.669Z,7.10
2017-11-09T00:29:13.273Z,7.10
2017-11-09T00:31:40.843Z,7.10
2017-11-09T00:34:08.439Z,7.20
2017-11-09T00:36:36.011Z,7.10
2017-11-09T00:39:03.603Z,6.90
2017-11-09T00:41:31.192Z,6.90
2017-11-09T00:43:58.797Z,7.00
2017-11-09T00:46:26.362Z,7.10
2017-11-09T00:48:53.965Z,7.10
2017-11-09T00:51:21.539Z,7.10
2017-11-09T00:53:49.145Z,7.10
2017-11-09T00:56:16.744Z,7.10
2017-11-09T00:58:44.339Z,7.20
2017-11-09T01:01:12.686Z,7.30
2017-11-09T01:03:40.285Z,7.30
2017-11-09T01:06:07.894Z,7.30
2017-11-09T01:08:36.658Z,7.30
2017-11-09T01:11:04.231Z,7.30
2017-11-09T01:13:31.834Z,7.40
2017-11-09T01:16:00.170Z,7.30
2017-11-09T01:18:27.774Z,7.30
2017-11-09T01:20:55.353Z,7.40
2017-11-09T01:23:22.945Z,7.40
2017-11-09T01:25:50.516Z,7.30
2017-11-09T01:28:18.106Z,7.20
2017-11-09T01:30:46.453Z,7.30
2017-11-09T01:33:14.045Z,7.20
2017-11-09T01:35:41.617Z,7.30
2017-11-09T01:38:09.204Z,7.30
2017-11-09T01:40:36.782Z,7.30
2017-11-09T01:43:04.370Z,7.20
2017-11-09T01:45:32.712Z,7.20
2017-11-09T01:48:00.289Z,7.20
2017-11-09T01:50:27.899Z,7.20
2017-11-09T01:52:56.248Z,7.20
2017-11-09T01:55:23.841Z,7.20
2017-11-09T01:57:51.408Z,7.40
2017-11-09T02:00:19.015Z,7.30
2017-11-09T02:02:47.360Z,7.50
2017-11-09T02:05:14.963Z,7.50
2017-11-09T02:07:42.527Z,7.60
2017-11-09T02:10:10.113Z,7.60
2017-11-09T02:12:37.691Z,7.60
2017-11-09T02:15:05.279Z,7.60
2017-11-09T02:17:33.616Z,7.60
2017-11-09T02:20:01.205Z,7.60
2017-11-09T02:22:28.778Z,7.70
2017-11-09T02:24:56.378Z,7.60
2017-11-09T02:27:23.957Z,7.60
2017-11-09T02:29:51.547Z,7.60
2017-11-09T02:32:19.887Z,7.70
2017-11-09T02:34:47.480Z,7.70
2017-11-09T02:37:15.049Z,7.80
2017-11-09T02:39:42.646Z,7.70
2017-11-09T02:42:10.993Z,7.80
2017-11-09T02:44:38.586Z,7.80
2017-11-09T02:47:06.176Z,7.90
2017-11-09T02:49:33.766Z,7.90
2017-11-09T02:52:01.329Z,7.80
2017-11-09T02:54:31.683Z,7.90
2017-11-09T02:57:00.022Z,8.00
2017-11-09T02:59:27.624Z,8.00
2017-11-09T03:01:55.192Z,8.00
2017-11-09T03:04:22.781Z,7.90
2017-11-09T03:06:50.345Z,7.90
2017-11-09T03:09:17.938Z,7.90
2017-11-09T03:11:46.285Z,7.80
2017-11-09T03:14:13.886Z,7.80
2017-11-09T03:16:41.462Z,7.80
2017-11-09T03:19:09.057Z,7.90
2017-11-09T03:21:37.393Z,8.00
2017-11-09T03:24:04.976Z,8.00
2017-11-09T03:26:33.570Z,8.10
2017-11-09T03:29:01.159Z,8.00
2017-11-09T03:31:28.731Z,7.90
2017-11-09T03:33:56.310Z,7.80
2017-11-09T03:36:23.915Z,7.90
2017-11-09T03:38:52.284Z,7.90
2017-11-09T03:41:19.878Z,7.90
2017-11-09T03:43:47.455Z,8.00
2017-11-09T03:46:15.833Z,8.00
2017-11-09T03:48:43.413Z,8.00
2017-11-09T03:51:11.010Z,8.00
2017-11-09T03:53:39.341Z,8.00
2017-11-09T03:56:06.942Z,8.00
2017-11-09T03:58:34.541Z,7.90
2017-11-09T04:01:02.876Z,8.00
2017-11-09T04:03:30.471Z,7.90
2017-11-09T04:05:58.062Z,8.00
2017-11-09T04:08:25.658Z,8.00
2017-11-09T04:10:53.992Z,8.00
2017-11-09T04:13:21.597Z,8.00
2017-11-09T04:15:49.169Z,8.00
2017-11-09T04:18:16.768Z,8.00
2017-11-09T04:20:45.102Z,8.10
2017-11-09T04:23:12.813Z,8.10
2017-11-09T04:25:40.388Z,8.10
2017-11-09T04:28:07.968Z,8.10
2017-11-09T04:30:35.575Z,8.00
2017-11-09T04:33:03.912Z,8.10
2017-11-09T04:35:31.512Z,8.10
2017-11-09T04:37:59.075Z,8.10
2017-11-09T04:40:26.679Z,8.20
2017-11-09T04:42:55.019Z,8.20
2017-11-09T04:45:23.385Z,8.20
2017-11-09T04:47:50.957Z,8.20
2017-11-09T04:50:18.550Z,8.20
2017-11-09T04:52:46.117Z,8.20
2017-11-09T04:55:13.709Z,8.20
2017-11-09T04:57:41.281Z,8.00
2017-11-09T05:00:08.888Z,7.90
2017-11-09T05:02:36.467Z,8.00
2017-11-09T05:05:04.183Z,8.00
2017-11-09T05:07:31.749Z,8.00
2017-11-09T05:09:59.364Z,8.10
2017-11-09T05:12:26.954Z,8.00
2017-11-09T05:14:54.564Z,7.90
2017-11-09T05:17:22.906Z,8.00
2017-11-09T05:19:50.504Z,7.90
2017-11-09T05:22:18.084Z,7.90
2017-11-09T05:24:45.681Z,7.60
2017-11-09T05:27:13.275Z,7.50
2017-11-09T05:29:40.869Z,7.40
2017-11-09T05:32:08.444Z,7.40
2017-11-09T05:34:36.074Z,7.40
2017-11-09T05:37:03.657Z,7.50
2017-11-09T05:39:31.233Z,7.40
2017-11-09T05:41:58.829Z,7.40
2017-11-09T05:44:26.412Z,7.50
2017-11-09T05:46:54.000Z,7.40
2017-11-09T05:49:21.588Z,7.30
2017-11-09T05:51:49.181Z,7.30
2017-11-09T05:54:17.530Z,7.30
2017-11-09T05:56:45.132Z,7.30
2017-11-09T05:59:12.743Z,7.50
2017-11-09T06:01:40.354Z,7.50
2017-11-09T06:04:07.935Z,7.60
2017-11-09T06:06:35.526Z,7.70
2017-11-09T06:09:03.099Z,7.70
2017-11-09T06:11:30.714Z,7.60
2017-11-09T06:13:59.101Z,7.40
2017-11-09T06:16:27.445Z,7.40
2017-11-09T06:18:55.037Z,7.40
2017-11-09T06:21:22.632Z,7.50
2017-11-09T06:23:50.965Z,7.60
2017-11-09T06:26:18.561Z,7.60
2017-11-09T06:28:46.129Z,7.60
2017-11-09T06:31:14.482Z,7.50
2017-11-09T06:33:42.082Z,7.50
2017-11-09T06:36:09.720Z,7.40
2017-11-09T06:38:37.327Z,7.20
2017-11-09T06:41:04.907Z,7.10
2017-11-09T06:43:32.509Z,7.10
2017-11-09T06:46:00.084Z,6.90
2017-11-09T06:48:27.680Z,6.90
2017-11-09T06:50:55.254Z,6.90
2017-11-09T06:53:22.828Z,6.90
2017-11-09T06:55:50.425Z,6.80
2017-11-09T06:58:18.139Z,6.80
2017-11-09T07:00:45.748Z,6.90
2017-11-09T07:03:13.371Z,6.90
2017-11-09T07:05:40.953Z,7.00
2017-11-09T07:08:08.512Z,7.00
2017-11-09T07:10:36.096Z,7.10
2017-11-09T07:13:03.666Z,7.10
2017-11-09T07:15:31.260Z,7.20
2017-11-09T07:17:58.835Z,7.20
2017-11-09T07:20:26.422Z,7.20
2017-11-09T07:22:53.995Z,7.10
2017-11-09T07:25:22.357Z,7.10
2017-11-09T07:27:49.931Z,7.10
2017-11-09T07:30:17.522Z,7.10
2017-11-09T07:32:45.111Z,7.10
2017-11-09T07:35:12.701Z,7.20
2017-11-09T07:37:40.281Z,7.30
2017-11-09T07:40:07.874Z,7.30
2017-11-09T07:42:36.213Z,7.50
2017-11-09T07:45:03.808Z,7.50
2017-11-09T07:47:31.372Z,7.60
2017-11-09T07:49:58.970Z,7.80
2017-11-09T07:52:27.316Z,7.80
2017-11-09T07:54:54.900Z,7.80
2017-11-09T07:57:22.473Z,7.70
2017-11-09T07:59:50.072Z,7.70
2017-11-09T08:02:17.649Z,7.70
2017-11-09T08:04:45.250Z,7.60
2017-11-09T08:07:13.595Z,7.50
2017-11-09T08:09:41.222Z,7.40
2017-11-09T08:12:09.562Z,7.40
2017-11-09T08:14:37.151Z,7.40
2017-11-09T08:17:04.721Z,7.40
2017-11-09T08:19:32.329Z,7.50
2017-11-09T08:22:00.664Z,7.60
2017-11-09T08:24:28.802Z,7.60
2017-11-09T08:27:01.138Z,7.50
2017-11-09T08:29:31.590Z,7.50
2017-11-09T08:32:01.482Z,7.60
2017-11-09T08:34:29.082Z,7.60
2017-11-09T08:36:56.668Z,7.60
2017-11-09T08:39:24.268Z,7.60
2017-11-09T08:41:51.858Z,7.60
2017-11-09T08:44:19.458Z,7.70
2017-11-09T08:46:47.030Z,7.70
2017-11-09T08:49:14.626Z,7.80
2017-11-09T08:51:42.194Z,7.80
2017-11-09T08:54:09.788Z,7.90
2017-11-09T08:56:37.365Z,7.90
2017-11-09T08:59:04.976Z,8.00
2017-11-09T09:01:33.318Z,8.00
2017-11-09T09:04:00.920Z,7.90
2017-11-09T09:06:28.494Z,8.00
2017-11-09T09:08:56.101Z,8.00
2017-11-09T09:11:24.432Z,8.20
2017-11-09T09:13:52.034Z,8.20
2017-11-09T09:16:19.609Z,8.20
2017-11-09T09:18:47.218Z,8.20
2017-11-09T09:21:24.709Z,8.20
2017-11-09T09:23:52.863Z,8.20
2017-11-09T09:26:21.857Z,8.20
2017-11-09T09:28:59.361Z,8.10
2017-11-09T09:31:26.938Z,8.20
2017-11-09T09:33:58.421Z,8.50
2017-11-09T09:36:37.254Z,8.50
2017-11-09T09:39:06.186Z,8.50
2017-11-09T09:41:33.765Z,8.60
2017-11-09T09:44:01.368Z,8.70
2017-11-09T09:46:28.962Z,8.70
2017-11-09T09:48:56.570Z,8.90
2017-11-09T09:51:24.132Z,8.90
2017-11-09T09:53:51.762Z,9.20
2017-11-09T09:56:19.348Z,9.20
2017-11-09T09:58:46.950Z,9.20
2017-11-09T10:01:14.524Z,9.00
2017-11-09T10:03:42.136Z,8.90
2017-11-09T10:06:09.717Z,8.70
2017-11-09T10:08:38.081Z,8.90
2017-11-09T10:11:06.445Z,8.80
2017-11-09T10:13:34.009Z,8.70
2017-11-09T10:16:01.607Z,8.70
2017-11-09T10:18:29.229Z,8.80
2017-11-09T10:20:57.581Z,9.00
2017-11-09T10:23:25.182Z,9.00
2017-11-09T10:25:52.755Z,9.00
2017-11-09T10:28:20.336Z,9.10
2017-11-09T10:30:48.698Z,9.20
2017-11-09T10:33:21.268Z,9.20
2017-11-09T10:35:48.866Z,9.40
2017-11-09T10:38:16.437Z,9.30
2017-11-09T10:40:44.042Z,9.20
2017-11-09T10:43:11.613Z,9.20
2017-11-09T10:45:39.215Z,9.20
2017-11-09T10:48:06.781Z,9.30
2017-11-09T10:50:35.172Z,9.10
2017-11-09T10:53:03.541Z,9.00
2017-11-09T10:55:31.114Z,9.00
2017-11-09T10:57:58.725Z,9.10
2017-11-09T11:00:32.070Z,9.00
2017-11-09T11:02:59.665Z,9.20
2017-11-09T11:05:27.237Z,9.20
2017-11-09T11:07:54.829Z,9.10
2017-11-09T11:10:22.398Z,9.20
2017-11-09T11:12:50.004Z,9.10
2017-11-09T11:15:17.573Z,9.20
2017-11-09T11:17:45.197Z,9.20
2017-11-09T11:20:12.762Z,9.30
2017-11-09T11:22:40.329Z,9.30
2017-11-09T11:25:07.940Z,9.10
2017-11-09T11:27:35.518Z,9.10
2017-11-09T11:30:03.112Z,9.10
2017-11-09T11:32:31.452Z,9.10
2017-11-09T11:34:59.042Z,9.10
2017-11-09T11:37:26.610Z,9.10
2017-11-09T11:39:54.201Z,9.10
2017-11-09T11:42:21.777Z,9.00
2017-11-09T11:44:49.378Z,9.00
2017-11-09T11:47:17.713Z,9.00
2017-11-09T11:49:45.308Z,9.00
2017-11-09T11:52:12.881Z,9.00
2017-11-09T11:54:40.467Z,9.10
2017-11-09T11:57:08.044Z,9.20
2017-11-09T11:59:35.641Z,9.20
2017-11-09T12:02:03.982Z,9.30
2017-11-09T12:04:31.604Z,9.30
2017-11-09T12:06:59.958Z,9.30
2017-11-09T12:09:27.609Z,9.30
2017-11-09T12:11:59.990Z,9.30
2017-11-09T12:14:27.553Z,9.40
2017-11-09T12:16:55.160Z,9.30
2017-11-09T12:19:22.725Z,9.40
2017-11-09T12:21:51.076Z,9.60
2017-11-09T12:24:19.414Z,9.70
2017-11-09T12:26:47.777Z,9.70
2017-11-09T12:29:15.362Z,9.70
2017-11-09T12:31:42.969Z,9.60
2017-11-09T12:34:10.544Z,9.60
2017-11-09T12:36:38.148Z,9.60
2017-11-09T12:39:06.488Z,9.70
2017-11-09T12:41:34.080Z,9.70
2017-11-09T12:44:01.658Z,9.50
2017-11-09T12:46:31.180Z,9.50
2017-11-09T12:48:58.763Z,9.50
2017-11-09T12:51:26.356Z,9.50
2017-11-09T12:53:54.697Z,9.30
2017-11-09T12:56:22.317Z,9.30
2017-11-09T12:58:50.657Z,9.40
2017-11-09T13:01:18.232Z,9.40
2017-11-09T13:03:45.827Z,9.60
2017-11-09T13:06:13.518Z,9.60
2017-11-09T13:08:41.112Z,9.70
2017-11-09T13:11:08.723Z,9.60
2017-11-09T13:13:36.317Z,9.60
2017-11-09T13:16:03.901Z,9.70
2017-11-09T13:18:31.511Z,9.60
2017-11-09T13:20:59.844Z,9.50
2017-11-09T13:23:27.447Z,9.60
2017-11-09T13:25:55.027Z,9.40
2017-11-09T13:28:22.621Z,9.40
2017-11-09T13:30:50.953Z,9.30
2017-11-09T13:33:19.308Z,9.40
2017-11-09T13:35:46.880Z,9.40
2017-11-09T13:38:14.473Z,9.30
2017-11-09T13:40:42.055Z,9.30
2017-11-09T13:43:10.604Z,9.40
2017-11-09T13:45:41.089Z,9.40
2017-11-09T13:48:08.686Z,9.50
2017-11-09T13:50:36.257Z,9.40
2017-11-09T13:53:03.863Z,9.40
2017-11-09T13:55:31.434Z,9.40
2017-11-09T13:57:59.002Z,9.50
2017-11-09T14:00:28.407Z,9.60
2017-11-09T14:02:56.742Z,9.60
2017-11-09T14:05:24.327Z,9.60
2017-11-09T14:07:51.927Z,9.60
2017-11-09T14:10:21.494Z,9.60
2017-11-09T14:12:49.074Z,9.50
2017-11-09T14:15:16.679Z,9.40
2017-11-09T14:17:44.265Z,9.40
2017-11-09T14:20:11.874Z,9.40
2017-11-09T14:22:39.449Z,9.30
2017-11-09T14:25:07.057Z,9.40
2017-11-09T14:27:35.413Z,9.30
2017-11-09T14:30:03.009Z,9.30
2017-11-09T14:32:30.586Z,9.20
2017-11-09T14:34:58.203Z,9.20
2017-11-09T14:37:25.808Z,9.10
2017-11-09T14:39:53.381Z,9.10
2017-11-09T14:42:20.997Z,9.10
2017-11-09T14:44:49.338Z,9.00
2017-11-09T14:47:17.747Z,9.00
2017-11-09T14:49:45.326Z,9.00
2017-11-09T14:52:12.928Z,8.90
2017-11-09T14:54:41.271Z,8.90
2017-11-09T14:57:08.861Z,8.80
2017-11-09T14:59:36.444Z,8.80
2017-11-09T15:02:04.041Z,8.90
2017-11-09T15:04:31.628Z,8.80
2017-11-09T15:07:00.005Z,8.70
2017-11-09T15:09:27.576Z,8.70
2017-11-09T15:11:55.160Z,8.70
2017-11-09T15:14:22.736Z,8.70
2017-11-09T15:16:50.323Z,8.70
2017-11-09T15:19:18.663Z,8.60
2017-11-09T15:21:46.252Z,8.60
2017-11-09T15:24:13.826Z,8.40
2017-11-09T15:26:41.434Z,8.40
2017-11-09T15:29:09.769Z,8.20
2017-11-09T15:31:43.068Z,8.20
2017-11-09T15:34:10.641Z,8.10
2017-11-09T15:36:38.237Z,8.00
2017-11-09T15:39:05.809Z,8.00
2017-11-09T15:41:33.464Z,7.90
2017-11-09T15:44:01.034Z,7.90
2017-11-09T15:46:28.736Z,7.90
2017-11-09T15:48:56.305Z,7.80
2017-11-09T15:51:23.871Z,7.70
2017-11-09T15:53:51.538Z,7.70
2017-11-09T15:56:19.117Z,7.70
2017-11-09T15:58:46.715Z,7.60
2017-11-09T16:01:14.312Z,7.60
2017-11-09T16:03:42.694Z,7.50
2017-11-09T16:06:10.265Z,7.50
2017-11-09T16:08:37.867Z,7.50
2017-11-09T16:11:06.197Z,7.50
2017-11-09T16:13:33.820Z,7.40
2017-11-09T16:16:01.390Z,7.40
2017-11-09T16:18:28.958Z,7.40
2017-11-09T16:20:56.556Z,7.40
2017-11-09T16:23:24.890Z,7.30
2017-11-09T16:25:55.298Z,7.30
2017-11-09T16:28:23.628Z,7.30
2017-11-09T16:30:51.228Z,7.20
2017-11-09T16:33:18.803Z,7.20
2017-11-09T16:35:46.390Z,7.30
2017-11-09T16:38:13.989Z,7.20
2017-11-09T16:40:42.349Z,7.10
2017-11-09T16:43:09.917Z,7.10
2017-11-09T16:45:38.385Z,7.10
2017-11-09T16:48:05.948Z,7.00
2017-11-09T16:50:33.507Z,7.00
2017-11-09T16:53:02.948Z,6.90
2017-11-09T16:55:30.513Z,6.90
2017-11-09T16:57:58.092Z,6.90
2017-11-09T17:00:25.663Z,6.80
2017-11-09T17:02:53.261Z,6.80
2017-11-09T17:05:20.824Z,6.90
2017-11-09T17:07:48.583Z,6.80
2017-11-09T17:10:16.149Z,6.80
2017-11-09T17:12:43.747Z,6.80
2017-11-09T17:15:11.321Z,6.70
2017-11-09T17:17:38.916Z,6.70
2017-11-09T17:20:06.493Z,6.80
2017-11-09T17:22:34.083Z,6.70
2017-11-09T17:25:01.681Z,6.70
2017-11-09T17:27:30.037Z,6.60
2017-11-09T17:29:57.611Z,6.60
2017-11-09T17:32:25.233Z,6.60
2017-11-09T17:34:52.808Z,6.60
2017-11-09T17:37:20.381Z,6.60
2017-11-09T17:39:47.975Z,6.50
2017-11-09T17:42:19.368Z,6.50
2017-11-09T17:44:46.960Z,6.60
2017-11-09T17:47:14.533Z,6.70
2017-11-09T17:49:42.907Z,6.80
2017-11-09T17:52:10.477Z,6.80
2017-11-09T17:54:38.077Z,6.80
2017-11-09T17:57:05.637Z,6.90
2017-11-09T17:59:36.031Z,7.00
2017-11-09T18:02:03.606Z,7.00
2017-11-09T18:04:31.193Z,7.10
2017-11-09T18:06:58.765Z,7.10
2017-11-09T18:09:26.370Z,7.10
2017-11-09T18:11:53.937Z,7.10
2017-11-09T18:14:21.517Z,7.20
2017-11-09T18:16:49.087Z,7.20
2017-11-09T18:19:16.677Z,7.20
2017-11-09T18:21:44.251Z,7.20
2017-11-09T18:24:11.844Z,7.30
2017-11-09T18:26:40.205Z,7.30
2017-11-09T18:29:07.808Z,7.30
2017-11-09T18:31:36.146Z,7.20
2017-11-09T18:34:04.496Z,7.20
2017-11-09T18:36:32.827Z,7.10
2017-11-09T18:39:00.413Z,7.00
2017-11-09T18:41:27.984Z,7.00
2017-11-09T18:43:55.569Z,7.00
2017-11-09T18:46:23.133Z,7.00
2017-11-09T18:48:51.490Z,7.00
2017-11-09T18:51:19.821Z,6.90
2017-11-09T18:53:48.176Z,6.90
2017-11-09T18:56:16.512Z,6.80
2017-11-09T18:58:45.888Z,6.80
2017-11-09T19:01:13.453Z,6.80
2017-11-09T19:06:15.697Z,6.80
2017-11-09T19:08:43.291Z,6.90
2017-11-09T19:11:11.631Z,6.90
2017-11-09T19:13:39.988Z,7.00
2017-11-09T19:16:07.567Z,6.90
2017-11-09T19:18:35.156Z,7.00
2017-11-09T19:21:02.720Z,7.00
2017-11-09T19:23:30.312Z,7.00
2017-11-09T19:25:58.645Z,7.10
2017-11-09T19:28:26.233Z,7.10
2017-11-09T19:30:53.798Z,7.10
2017-11-09T19:33:21.401Z,7.10
2017-11-09T19:35:48.965Z,7.10
2017-11-09T19:38:16.553Z,7.10
2017-11-09T19:40:44.140Z,7.20
2017-11-09T19:43:12.491Z,7.20
2017-11-09T19:45:40.058Z,7.20
2017-11-09T19:48:07.649Z,7.20
2017-11-09T19:50:35.234Z,7.20
2017-11-09T19:53:02.830Z,7.30
2017-11-09T19:55:30.400Z,7.30
2017-11-09T19:57:57.994Z,7.20
2017-11-09T20:00:26.325Z,7.30
2017-11-09T20:02:53.917Z,7.30
2017-11-09T20:05:21.484Z,7.30
2017-11-09T20:07:49.080Z,7.30
2017-11-09T20:10:16.658Z,7.40
2017-11-09T20:12:44.240Z,7.40
2017-11-09T20:15:11.802Z,7.50
2017-11-09T20:17:39.398Z,7.40
2017-11-09T20:20:07.732Z,7.50
2017-11-09T20:22:35.325Z,7.40
2017-11-09T20:25:02.922Z,7.50
2017-11-09T20:27:30.515Z,7.50
2017-11-09T20:29:58.844Z,7.50
2017-11-09T20:32:26.432Z,7.50
2017-11-09T20:34:53.993Z,7.60
2017-11-09T20:37:21.594Z,7.60
2017-11-09T20:39:52.009Z,7.60
2017-11-09T20:42:19.604Z,7.60
2017-11-09T20:44:47.181Z,7.70
2017-11-09T20:47:14.785Z,7.70
2017-11-09T20:49:43.126Z,7.70
2017-11-09T20:52:13.192Z,7.60
2017-11-09T20:54:40.758Z,7.60
2017-11-09T20:57:08.327Z,7.60
2017-11-09T20:59:35.924Z,7.60
2017-11-09T21:02:03.506Z,7.60
2017-11-09T21:04:31.861Z,7.60
2017-11-09T21:06:59.437Z,7.60
2017-11-09T21:09:27.038Z,7.50
2017-11-09T21:11:54.614Z,7.50
2017-11-09T21:14:22.202Z,7.40
2017-11-09T21:16:50.566Z,7.30
2017-11-09T21:19:18.165Z,7.30
2017-11-09T21:21:46.500Z,7.20
2017-11-09T21:24:15.567Z,7.20
2017-11-09T21:26:43.911Z,7.10
2017-11-09T21:29:11.506Z,7.10
2017-11-09T21:31:39.076Z,7.10
2017-11-09T21:34:06.679Z,7.10
2017-11-09T21:36:34.253Z,7.10
2017-11-09T21:39:01.849Z,7.10
2017-11-09T21:41:29.425Z,7.10
2017-11-09T21:43:57.016Z,7.00
2017-11-09T21:46:24.582Z,7.10
2017-11-09T21:48:53.081Z,7.00
2017-11-09T21:51:20.648Z,7.00
2017-11-09T21:53:48.237Z,7.00
2017-11-09T21:56:15.805Z,7.00
2017-11-09T21:58:43.398Z,7.00
2017-11-09T22:01:10.977Z,7.00
2017-11-09T22:03:38.795Z,7.00
2017-11-09T22:06:06.366Z,7.00
2017-11-09T22:08:33.969Z,7.00
2017-11-09T22:11:01.550Z,7.00
2017-11-09T22:13:29.150Z,7.00
2017-11-09T22:15:56.743Z,7.00
2017-11-09T22:18:24.356Z,7.00
2017-11-09T22:20:52.694Z,7.00
2017-11-09T22:23:20.293Z,7.00
2017-11-09T22:25:47.863Z,7.10
2017-11-09T22:28:15.474Z,7.10
2017-11-09T22:30:43.813Z,7.10
2017-11-09T22:33:11.426Z,7.10
2017-11-09T22:35:38.998Z,7.10
2017-11-09T22:38:06.632Z,7.10
2017-11-09T22:40:34.202Z,7.10
2017-11-09T22:43:01.768Z,7.00
2017-11-09T22:45:29.386Z,7.00
2017-11-09T22:47:57.000Z,7.10
2017-11-09T22:50:24.603Z,7.10
2017-11-09T22:52:52.169Z,7.10
2017-11-09T22:55:19.813Z,7.10
2017-11-09T22:57:48.225Z,7.10
2017-11-09T23:00:15.868Z,7.10
2017-11-09T23:02:44.200Z,7.10
2017-11-09T23:05:11.847Z,7.10
2017-11-09T23:07:39.496Z,7.10
2017-11-09T23:10:07.162Z,7.10
2017-11-09T23:12:34.803Z,7.10
2017-11-09T23:15:02.448Z,7.10
2017-11-09T23:17:30.837Z,7.10
2017-11-09T23:19:59.253Z,7.20
2017-11-09T23:22:26.890Z,7.20
2017-11-09T23:24:55.327Z,7.20
2017-11-09T23:27:22.948Z,7.20
2017-11-09T23:29:50.611Z,7.20
2017-11-09T23:32:18.245Z,7.20
2017-11-09T23:34:45.916Z,7.20
2017-11-09T23:37:13.541Z,7.20
2017-11-09T23:39:41.194Z,7.20
2017-11-09T23:42:08.861Z,7.20
2017-11-09T23:44:36.517Z,7.20
2017-11-09T23:47:04.150Z,7.20
2017-11-09T23:49:31.816Z,7.20
2017-11-09T23:51:59.450Z,7.20
2017-11-09T23:54:27.862Z,7.20
2017-11-09T23:56:55.511Z,7.20
2017-11-09T23:59:23.169Z,7.20
